createdAt,value
2018-04-30T00:01:30.729Z,17.63
2018-04-30T00:03:59.075Z,17.52
2018-04-30T00:06:27.306Z,17.57
2018-04-30T00:08:55.569Z,17.53
2018-04-30T00:11:23.848Z,17.40
2018-04-30T00:13:52.118Z,17.28
2018-04-30T00:16:20.417Z,17.14
2018-04-30T00:18:48.678Z,17.01
2018-04-30T00:21:16.986Z,16.98
2018-04-30T00:23:45.765Z,17.10
2018-04-30T00:26:14.350Z,17.01
2018-04-30T00:28:42.633Z,16.89
2018-04-30T00:31:10.937Z,16.92
2018-04-30T00:33:39.288Z,16.93
2018-04-30T00:36:07.511Z,17.01
2018-04-30T00:38:35.793Z,16.99
2018-04-30T00:41:04.096Z,16.98
2018-04-30T00:43:32.410Z,16.95
2018-04-30T00:46:00.734Z,17.01
2018-04-30T00:48:29.047Z,16.88
2018-04-30T00:50:57.931Z,16.87
2018-04-30T00:53:26.330Z,16.65
2018-04-30T00:55:54.635Z,16.72
2018-04-30T00:58:22.918Z,16.65
2018-04-30T01:00:51.185Z,16.59
2018-04-30T01:03:20.161Z,16.57
2018-04-30T01:05:48.389Z,16.60
2018-04-30T01:08:16.686Z,16.69
2018-04-30T01:10:44.941Z,16.84
2018-04-30T01:13:14.166Z,16.88
2018-04-30T01:15:42.419Z,16.89
2018-04-30T01:18:10.703Z,16.75
2018-04-30T01:20:38.954Z,16.76
2018-04-30T01:23:07.257Z,16.59
2018-04-30T01:25:35.558Z,16.52
2018-04-30T01:28:03.814Z,16.32
2018-04-30T01:30:32.095Z,16.34
2018-04-30T01:33:00.339Z,16.15
2018-04-30T01:35:28.606Z,16.05
2018-04-30T01:37:56.894Z,15.97
2018-04-30T01:40:25.184Z,15.98
2018-04-30T01:42:53.427Z,16.08
2018-04-30T01:45:21.766Z,15.99
2018-04-30T01:47:50.278Z,15.95
2018-04-30T01:50:18.596Z,15.82
2018-04-30T01:52:46.850Z,15.80
2018-04-30T01:55:15.165Z,15.63
2018-04-30T01:57:43.425Z,15.70
2018-04-30T02:00:11.703Z,15.66
2018-04-30T02:02:40.010Z,15.76
2018-04-30T02:05:08.268Z,15.62
2018-04-30T02:07:36.542Z,15.54
2018-04-30T02:10:04.842Z,15.53
2018-04-30T02:12:33.161Z,15.37
2018-04-30T02:15:01.443Z,15.30
2018-04-30T02:17:29.714Z,15.22
2018-04-30T02:19:58.010Z,15.36
2018-04-30T02:22:26.326Z,15.39
2018-04-30T02:24:54.559Z,15.30
2018-04-30T02:27:22.861Z,15.14
2018-04-30T02:29:51.111Z,15.03
2018-04-30T02:32:19.427Z,15.07
2018-04-30T02:34:47.704Z,14.86
2018-04-30T02:37:16.142Z,15.00
2018-04-30T02:39:44.369Z,14.92
2018-04-30T02:42:12.686Z,14.91
2018-04-30T02:44:40.990Z,14.96
2018-04-30T02:47:09.239Z,14.87
2018-04-30T02:49:37.507Z,14.86
2018-04-30T02:52:05.813Z,14.83
2018-04-30T02:54:34.184Z,14.87
2018-04-30T02:57:02.425Z,14.79
2018-04-30T02:59:30.709Z,14.69
2018-04-30T03:01:58.997Z,14.62
2018-04-30T03:04:27.260Z,14.75
2018-04-30T03:06:55.511Z,14.78
2018-04-30T03:09:23.809Z,14.67
2018-04-30T03:11:52.085Z,14.64
2018-04-30T03:14:20.377Z,14.50
2018-04-30T03:16:48.619Z,14.59
2018-04-30T03:19:16.886Z,14.59
2018-04-30T03:21:45.165Z,14.48
2018-04-30T03:24:13.468Z,14.53
2018-04-30T03:26:41.724Z,14.65
2018-04-30T03:29:10.017Z,14.65
2018-04-30T03:31:38.276Z,14.80
2018-04-30T03:34:06.563Z,14.74
2018-04-30T03:36:34.907Z,14.56
2018-04-30T03:39:03.171Z,14.46
2018-04-30T03:41:31.458Z,14.43
2018-04-30T03:43:59.739Z,14.45
2018-04-30T03:46:28.022Z,14.34
2018-04-30T03:48:56.277Z,14.41
2018-04-30T03:51:24.545Z,14.53
2018-04-30T03:53:52.806Z,14.46
2018-04-30T03:56:21.090Z,14.39
2018-04-30T03:58:49.334Z,14.49
2018-04-30T04:01:29.281Z,14.41
2018-04-30T04:04:09.278Z,14.45
2018-04-30T04:06:49.205Z,14.38
2018-04-30T04:09:17.458Z,14.29
2018-04-30T04:11:45.761Z,14.34
2018-04-30T04:14:14.114Z,14.37
2018-04-30T04:16:42.390Z,14.25
2018-04-30T04:19:10.846Z,14.28
2018-04-30T04:21:39.115Z,14.25
2018-04-30T04:24:07.401Z,14.16
2018-04-30T04:26:35.697Z,14.19
2018-04-30T04:29:03.978Z,14.09
2018-04-30T04:31:32.258Z,14.24
2018-04-30T04:34:00.565Z,14.23
2018-04-30T04:36:28.870Z,14.36
2018-04-30T04:38:57.149Z,14.46
2018-04-30T04:41:25.411Z,14.55
2018-04-30T04:43:53.704Z,14.52
2018-04-30T04:46:21.963Z,14.53
2018-04-30T04:48:50.238Z,14.50
2018-04-30T04:51:18.510Z,14.58
2018-04-30T04:53:46.804Z,14.51
2018-04-30T04:56:15.063Z,14.47
2018-04-30T04:58:43.355Z,14.46
2018-04-30T05:01:11.599Z,14.41
2018-04-30T05:03:39.897Z,14.33
2018-04-30T05:06:08.177Z,14.44
2018-04-30T05:08:36.522Z,14.31
2018-04-30T05:11:04.785Z,14.22
2018-04-30T05:13:33.096Z,14.34
2018-04-30T05:16:01.352Z,14.50
2018-04-30T05:18:29.675Z,14.33
2018-04-30T05:20:57.954Z,14.25
2018-04-30T05:23:26.246Z,14.13
2018-04-30T05:25:54.501Z,14.19
2018-04-30T05:28:22.944Z,14.28
2018-04-30T05:30:51.206Z,14.33
2018-04-30T05:33:19.481Z,14.35
2018-04-30T05:35:47.758Z,14.20
2018-04-30T05:38:16.026Z,14.19
2018-04-30T05:40:44.420Z,14.31
2018-04-30T05:43:12.678Z,14.41
2018-04-30T05:45:41.011Z,14.33
2018-04-30T05:48:09.284Z,14.26
2018-04-30T05:50:37.567Z,14.18
2018-04-30T05:53:05.810Z,14.20
2018-04-30T05:55:34.113Z,14.17
2018-04-30T05:58:02.391Z,14.13
2018-04-30T06:00:30.784Z,14.10
2018-04-30T06:02:58.985Z,14.33
2018-04-30T06:05:27.321Z,14.33
2018-04-30T06:07:56.765Z,14.26
2018-04-30T06:10:26.622Z,14.39
2018-04-30T06:12:55.632Z,14.40
2018-04-30T06:15:23.962Z,14.41
2018-04-30T06:17:52.226Z,14.44
2018-04-30T06:20:22.352Z,14.45
2018-04-30T06:22:51.510Z,14.50
2018-04-30T06:25:19.787Z,14.51
2018-04-30T06:27:48.072Z,14.63
2018-04-30T06:30:16.327Z,14.44
2018-04-30T06:32:44.622Z,14.50
2018-04-30T06:35:12.923Z,14.55
2018-04-30T06:37:41.355Z,14.55
2018-04-30T06:40:09.640Z,14.53
2018-04-30T06:42:37.970Z,14.62
2018-04-30T06:45:06.256Z,14.66
2018-04-30T06:47:34.640Z,14.58
2018-04-30T06:50:02.874Z,14.47
2018-04-30T06:52:31.800Z,14.64
2018-04-30T06:55:00.774Z,14.55
2018-04-30T06:57:29.198Z,14.66
2018-04-30T06:59:57.502Z,14.62
2018-04-30T07:02:25.794Z,14.71
2018-04-30T07:04:54.133Z,14.66
2018-04-30T07:07:22.540Z,14.74
2018-04-30T07:09:50.902Z,14.64
2018-04-30T07:12:19.202Z,14.76
2018-04-30T07:14:47.666Z,14.52
2018-04-30T07:17:15.967Z,14.71
2018-04-30T07:19:44.200Z,14.77
2018-04-30T07:22:12.628Z,14.83
2018-04-30T07:24:40.928Z,15.05
2018-04-30T07:27:09.362Z,15.12
2018-04-30T07:29:38.162Z,15.05
2018-04-30T07:32:07.470Z,14.78
2018-04-30T07:34:35.745Z,14.91
2018-04-30T07:37:04.029Z,15.01
2018-04-30T07:39:32.311Z,15.16
2018-04-30T07:42:00.603Z,15.09
2018-04-30T07:44:28.866Z,15.19
2018-04-30T07:46:57.109Z,15.20
2018-04-30T07:49:25.501Z,15.29
2018-04-30T07:51:53.818Z,15.26
2018-04-30T07:54:22.136Z,15.40
2018-04-30T07:56:50.417Z,15.25
2018-04-30T07:59:18.733Z,15.16
2018-04-30T08:01:47.081Z,15.20
2018-04-30T08:04:15.345Z,15.26
2018-04-30T08:06:43.646Z,15.27
2018-04-30T08:09:11.936Z,15.41
2018-04-30T08:11:40.177Z,15.35
2018-04-30T08:14:08.518Z,15.44
2018-04-30T08:16:37.195Z,15.61
2018-04-30T08:19:05.510Z,15.72
2018-04-30T08:21:33.813Z,15.77
2018-04-30T08:24:02.093Z,15.96
2018-04-30T08:26:30.380Z,16.20
2018-04-30T08:28:58.654Z,16.43
2018-04-30T08:31:27.762Z,16.16
2018-04-30T08:33:56.018Z,16.07
2018-04-30T08:36:24.291Z,16.05
2018-04-30T08:38:52.602Z,15.95
2018-04-30T08:41:20.947Z,15.77
2018-04-30T08:43:49.273Z,15.93
2018-04-30T08:46:17.551Z,15.99
2018-04-30T08:48:45.842Z,15.66
2018-04-30T08:51:14.221Z,15.36
2018-04-30T08:53:42.544Z,15.48
2018-04-30T08:56:10.890Z,15.69
2018-04-30T08:58:39.135Z,15.75
2018-04-30T09:01:07.490Z,15.82
2018-04-30T09:03:35.767Z,16.04
2018-04-30T09:06:04.115Z,16.11
2018-04-30T09:08:32.513Z,16.36
2018-04-30T09:11:00.867Z,16.59
2018-04-30T09:13:29.150Z,16.59
2018-04-30T09:15:57.547Z,16.49
2018-04-30T09:18:25.843Z,16.62
2018-04-30T09:20:54.179Z,16.74
2018-04-30T09:23:22.695Z,16.81
2018-04-30T09:25:51.003Z,17.08
2018-04-30T09:28:19.339Z,17.22
2018-04-30T09:30:47.616Z,17.08
2018-04-30T09:33:15.900Z,17.14
2018-04-30T09:35:44.269Z,17.29
2018-04-30T09:38:12.603Z,16.88
2018-04-30T09:40:40.937Z,16.84
2018-04-30T09:43:09.274Z,16.88
2018-04-30T09:45:37.595Z,16.81
2018-04-30T09:48:05.900Z,16.99
2018-04-30T09:50:34.153Z,17.09
2018-04-30T09:53:02.447Z,17.32
2018-04-30T09:55:30.757Z,17.31
2018-04-30T09:57:59.118Z,17.22
2018-04-30T10:00:27.346Z,17.43
2018-04-30T10:02:56.594Z,17.32
2018-04-30T10:05:25.501Z,17.21
2018-04-30T10:07:53.795Z,17.36
2018-04-30T10:10:22.096Z,17.28
2018-04-30T10:12:51.394Z,17.19
2018-04-30T10:15:19.701Z,17.40
2018-04-30T10:17:48.070Z,17.43
2018-04-30T10:20:16.337Z,17.70
2018-04-30T10:22:44.583Z,17.67
2018-04-30T10:25:12.891Z,17.32
2018-04-30T10:27:41.153Z,17.28
2018-04-30T10:30:09.449Z,17.52
2018-04-30T10:32:37.855Z,17.49
2018-04-30T10:35:06.257Z,17.79
2018-04-30T10:37:34.530Z,17.65
2018-04-30T10:40:02.829Z,17.79
2018-04-30T10:42:31.316Z,17.89
2018-04-30T10:44:59.575Z,18.02
2018-04-30T10:47:27.860Z,18.41
2018-04-30T10:49:56.170Z,18.53
2018-04-30T10:52:24.464Z,18.00
2018-04-30T10:54:52.726Z,17.55
2018-04-30T10:57:21.145Z,17.56
2018-04-30T10:59:49.431Z,17.71
2018-04-30T11:02:17.811Z,17.68
2018-04-30T11:04:46.915Z,17.83
2018-04-30T11:07:15.231Z,17.87
2018-04-30T11:09:43.554Z,18.02
2018-04-30T11:12:11.899Z,18.38
2018-04-30T11:14:40.264Z,18.35
2018-04-30T11:17:08.592Z,18.44
2018-04-30T11:19:36.846Z,18.03
2018-04-30T11:22:05.161Z,18.19
2018-04-30T11:24:33.460Z,18.14
2018-04-30T11:27:01.800Z,18.47
2018-04-30T11:29:30.974Z,18.43
2018-04-30T11:31:59.337Z,18.62
2018-04-30T11:34:27.828Z,18.56
2018-04-30T11:36:56.218Z,18.38
2018-04-30T11:39:24.519Z,18.70
2018-04-30T11:41:52.868Z,18.76
2018-04-30T11:44:21.204Z,18.66
2018-04-30T11:46:49.545Z,18.85
2018-04-30T11:49:17.856Z,19.26
2018-04-30T11:51:46.241Z,19.07
2018-04-30T11:54:14.622Z,19.21
2018-04-30T11:56:42.968Z,19.28
2018-04-30T11:59:11.463Z,18.98
2018-04-30T12:01:39.692Z,18.98
2018-04-30T12:04:07.996Z,19.00
2018-04-30T12:06:36.343Z,18.93
2018-04-30T12:09:05.474Z,19.28
2018-04-30T12:11:33.753Z,18.75
2018-04-30T12:14:02.120Z,18.82
2018-04-30T12:16:30.512Z,18.62
2018-04-30T12:18:58.975Z,18.86
2018-04-30T12:21:28.190Z,19.18
2018-04-30T12:23:56.548Z,19.31
2018-04-30T12:26:25.039Z,19.12
2018-04-30T12:28:53.534Z,19.21
2018-04-30T12:31:21.964Z,19.03
2018-04-30T12:33:50.193Z,19.20
2018-04-30T12:36:18.519Z,19.16
2018-04-30T12:38:46.810Z,19.18
2018-04-30T12:41:15.103Z,18.95
2018-04-30T12:43:43.541Z,18.88
2018-04-30T12:46:11.784Z,18.71
2018-04-30T12:48:40.062Z,18.85
2018-04-30T12:51:08.370Z,18.66
2018-04-30T12:53:36.638Z,18.49
2018-04-30T12:56:04.996Z,18.70
2018-04-30T12:58:33.299Z,18.81
2018-04-30T13:01:01.592Z,18.44
2018-04-30T13:03:29.902Z,18.63
2018-04-30T13:05:58.196Z,18.44
2018-04-30T13:08:26.478Z,18.88
2018-04-30T13:10:55.016Z,19.06
2018-04-30T13:13:23.289Z,19.17
2018-04-30T13:15:51.603Z,19.25
2018-04-30T13:18:19.918Z,19.32
2018-04-30T13:20:48.274Z,19.13
2018-04-30T13:23:16.619Z,19.02
2018-04-30T13:25:44.913Z,18.77
2018-04-30T13:28:13.225Z,18.82
2018-04-30T13:30:41.519Z,18.67
2018-04-30T13:33:09.854Z,17.94
2018-04-30T13:35:39.309Z,17.58
2018-04-30T13:38:07.844Z,17.51
2018-04-30T13:40:36.183Z,17.80
2018-04-30T13:43:04.927Z,18.17
2018-04-30T13:45:33.248Z,18.63
2018-04-30T13:48:01.574Z,19.03
2018-04-30T13:50:30.159Z,18.70
2018-04-30T13:52:58.636Z,18.90
2018-04-30T13:55:26.923Z,18.77
2018-04-30T13:57:55.200Z,18.53
2018-04-30T14:00:24.167Z,18.43
2018-04-30T14:02:52.505Z,18.42
2018-04-30T14:05:20.778Z,19.09
2018-04-30T14:07:49.138Z,19.51
2018-04-30T14:10:17.451Z,19.79
2018-04-30T14:12:45.726Z,19.77
2018-04-30T14:15:14.133Z,19.63
2018-04-30T14:17:42.503Z,19.61
2018-04-30T14:20:10.759Z,19.81
2018-04-30T14:22:39.070Z,19.18
2018-04-30T14:25:07.901Z,18.98
2018-04-30T14:27:36.579Z,18.87
2018-04-30T14:30:04.856Z,19.10
2018-04-30T14:32:33.166Z,19.58
2018-04-30T14:35:01.501Z,19.81
2018-04-30T14:37:29.826Z,19.39
2018-04-30T14:39:58.133Z,19.03
2018-04-30T14:42:27.356Z,18.80
2018-04-30T14:44:55.719Z,18.83
2018-04-30T14:47:24.520Z,19.24
2018-04-30T14:49:53.490Z,19.62
2018-04-30T14:52:21.802Z,19.60
2018-04-30T14:54:50.977Z,19.87
2018-04-30T14:57:19.459Z,19.77
2018-04-30T14:59:47.810Z,20.27
2018-04-30T15:02:16.238Z,20.81
2018-04-30T15:04:44.525Z,20.77
2018-04-30T15:07:12.862Z,20.82
2018-04-30T15:09:41.778Z,20.91
2018-04-30T15:12:10.980Z,21.09
2018-04-30T15:14:39.234Z,20.96
2018-04-30T15:17:08.401Z,20.91
2018-04-30T15:19:36.962Z,21.46
2018-04-30T15:22:05.294Z,20.73
2018-04-30T15:24:33.626Z,20.48
2018-04-30T15:27:01.927Z,20.32
2018-04-30T15:29:30.280Z,19.82
2018-04-30T15:31:58.637Z,19.47
2018-04-30T15:34:26.941Z,18.85
2018-04-30T15:36:55.260Z,18.68
2018-04-30T15:39:23.596Z,19.19
2018-04-30T15:41:51.865Z,19.30
2018-04-30T15:44:20.886Z,19.72
2018-04-30T15:46:49.213Z,19.45
2018-04-30T15:49:17.537Z,19.99
2018-04-30T15:51:45.841Z,20.31
2018-04-30T15:54:14.139Z,20.23
2018-04-30T15:56:42.470Z,20.33
2018-04-30T15:59:10.731Z,20.38
2018-04-30T16:01:39.021Z,20.61
2018-04-30T16:04:08.479Z,20.49
2018-04-30T16:06:36.775Z,20.54
2018-04-30T16:09:05.938Z,20.32
2018-04-30T16:11:34.231Z,19.66
2018-04-30T16:14:02.615Z,19.76
2018-04-30T16:16:31.146Z,19.39
2018-04-30T16:18:59.555Z,19.62
2018-04-30T16:21:27.826Z,19.91
2018-04-30T16:23:56.142Z,20.39
2018-04-30T16:26:24.619Z,20.73
2018-04-30T16:28:52.944Z,20.41
2018-04-30T16:31:22.217Z,20.03
2018-04-30T16:33:51.288Z,20.01
2018-04-30T16:36:19.568Z,19.60
2018-04-30T16:38:47.842Z,19.05
2018-04-30T16:41:16.184Z,18.62
2018-04-30T16:43:44.943Z,17.92
2018-04-30T16:46:13.289Z,17.66
2018-04-30T16:48:41.573Z,17.58
2018-04-30T16:51:09.862Z,17.18
2018-04-30T16:53:38.141Z,17.45
2018-04-30T16:56:06.513Z,17.78
2018-04-30T16:58:34.869Z,17.16
2018-04-30T17:01:03.160Z,16.96
2018-04-30T17:03:31.445Z,16.63
2018-04-30T17:05:59.794Z,16.61
2018-04-30T17:08:28.099Z,16.69
2018-04-30T17:10:56.379Z,16.77
2018-04-30T17:13:24.673Z,16.70
2018-04-30T17:15:52.930Z,16.81
2018-04-30T17:18:21.245Z,16.74
2018-04-30T17:20:49.491Z,16.68
2018-04-30T17:23:17.819Z,16.59
2018-04-30T17:25:46.126Z,16.56
2018-04-30T17:28:14.425Z,16.45
2018-04-30T17:30:42.698Z,16.41
2018-04-30T17:33:10.983Z,16.38
2018-04-30T17:35:39.351Z,15.96
2018-04-30T17:38:07.664Z,15.93
2018-04-30T17:40:36.011Z,15.96
2018-04-30T17:43:04.286Z,16.15
2018-04-30T17:45:32.570Z,16.27
2018-04-30T17:48:00.881Z,16.29
2018-04-30T17:50:29.135Z,15.97
2018-04-30T17:52:57.464Z,16.22
2018-04-30T17:55:25.743Z,16.44
2018-04-30T17:57:54.033Z,16.52
2018-04-30T18:00:22.334Z,16.18
2018-04-30T18:02:50.609Z,16.03
2018-04-30T18:05:18.876Z,16.18
2018-04-30T18:07:47.967Z,16.12
2018-04-30T18:10:16.661Z,16.17
2018-04-30T18:12:44.983Z,16.11
2018-04-30T18:15:13.301Z,16.17
2018-04-30T18:17:41.582Z,16.05
2018-04-30T18:20:10.574Z,15.98
2018-04-30T18:22:39.776Z,15.85
2018-04-30T18:25:08.129Z,15.79
2018-04-30T18:27:36.431Z,15.74
2018-04-30T18:30:04.780Z,15.77
2018-04-30T18:32:33.057Z,15.73
2018-04-30T18:35:01.364Z,15.64
2018-04-30T18:37:29.651Z,15.69
2018-04-30T18:39:58.582Z,15.72
2018-04-30T18:42:28.034Z,15.55
2018-04-30T18:44:56.307Z,15.51
2018-04-30T18:47:24.696Z,15.71
2018-04-30T18:49:52.991Z,15.77
2018-04-30T18:52:21.594Z,15.54
2018-04-30T18:54:49.869Z,15.46
2018-04-30T18:57:18.176Z,15.44
2018-04-30T18:59:48.301Z,15.42
2018-04-30T19:02:17.022Z,15.35
2018-04-30T19:04:45.419Z,15.14
2018-04-30T19:07:13.767Z,15.13
2018-04-30T19:09:42.061Z,15.09
2018-04-30T19:12:10.402Z,15.20
2018-04-30T19:14:38.715Z,14.92
2018-04-30T19:17:07.063Z,14.91
2018-04-30T19:19:35.330Z,14.90
2018-04-30T19:22:04.645Z,14.81
2018-04-30T19:24:33.038Z,14.94
2018-04-30T19:27:01.360Z,14.90
2018-04-30T19:29:30.472Z,14.90
2018-04-30T19:31:59.515Z,14.64
2018-04-30T19:34:27.793Z,14.57
2018-04-30T19:36:56.133Z,14.59
2018-04-30T19:39:24.450Z,14.56
2018-04-30T19:41:52.730Z,14.57
2018-04-30T19:44:21.043Z,14.64
2018-04-30T19:46:49.450Z,14.47
2018-04-30T19:49:17.815Z,14.31
2018-04-30T19:51:46.137Z,14.31
2018-04-30T19:54:14.420Z,14.36
2018-04-30T19:56:42.708Z,14.35
2018-04-30T19:59:10.992Z,14.20
2018-04-30T20:01:39.347Z,14.28
2018-04-30T20:04:07.662Z,14.20
2018-04-30T20:06:35.927Z,14.11
2018-04-30T20:09:04.281Z,13.99
2018-04-30T20:11:32.569Z,14.12
2018-04-30T20:14:00.862Z,14.02
2018-04-30T20:16:29.123Z,14.09
2018-04-30T20:18:57.432Z,13.88
2018-04-30T20:21:26.729Z,13.99
2018-04-30T20:23:55.060Z,13.90
2018-04-30T20:26:23.357Z,13.76
2018-04-30T20:28:51.753Z,13.74
2018-04-30T20:31:20.731Z,13.74
2018-04-30T20:33:49.000Z,13.62
2018-04-30T20:36:17.299Z,13.54
2018-04-30T20:38:45.557Z,13.64
2018-04-30T20:41:13.978Z,13.54
2018-04-30T20:43:42.257Z,13.46
2018-04-30T20:46:10.572Z,13.47
2018-04-30T20:48:38.841Z,13.42
2018-04-30T20:51:07.163Z,13.44
2018-04-30T20:53:35.434Z,13.52
2018-04-30T20:56:03.722Z,13.40
2018-04-30T20:58:32.085Z,13.36
2018-04-30T21:01:00.787Z,13.37
2018-04-30T21:03:29.783Z,13.07
2018-04-30T21:05:58.066Z,12.97
2018-04-30T21:08:26.369Z,12.90
2018-04-30T21:10:54.638Z,12.70
2018-04-30T21:13:22.924Z,12.73
2018-04-30T21:15:51.227Z,12.68
2018-04-30T21:18:19.495Z,12.70
2018-04-30T21:20:47.815Z,12.76
2018-04-30T21:23:16.101Z,12.81
2018-04-30T21:25:44.487Z,12.72
2018-04-30T21:28:13.232Z,12.68
2018-04-30T21:30:41.594Z,12.63
2018-04-30T21:33:09.880Z,12.64
2018-04-30T21:35:38.171Z,12.56
2018-04-30T21:38:06.468Z,12.52
2018-04-30T21:40:34.796Z,12.61
2018-04-30T21:43:03.105Z,12.72
2018-04-30T21:45:31.412Z,12.78
2018-04-30T21:47:59.767Z,12.75
2018-04-30T21:50:28.626Z,12.82
2018-04-30T21:52:57.474Z,12.61
2018-04-30T21:55:25.896Z,12.74
2018-04-30T21:57:54.945Z,12.82
2018-04-30T22:00:28.220Z,12.72
2018-04-30T22:02:56.478Z,12.59
2018-04-30T22:05:24.784Z,12.34
2018-04-30T22:07:54.050Z,12.05
2018-04-30T22:10:23.153Z,11.99
2018-04-30T22:12:51.504Z,11.96
2018-04-30T22:15:19.769Z,11.92
2018-04-30T22:17:48.624Z,12.07
2018-04-30T22:20:17.007Z,12.00
2018-04-30T22:22:45.289Z,11.94
2018-04-30T22:25:13.660Z,11.84
2018-04-30T22:27:42.262Z,11.66
2018-04-30T22:30:10.557Z,11.58
2018-04-30T22:32:39.324Z,11.62
2018-04-30T22:35:07.661Z,11.73
2018-04-30T22:37:36.216Z,11.67
2018-04-30T22:40:06.814Z,11.66
2018-04-30T22:42:35.136Z,11.75
2018-04-30T22:45:03.402Z,11.73
2018-04-30T22:47:31.657Z,11.56
2018-04-30T22:49:59.970Z,11.64
2018-04-30T22:52:29.529Z,11.51
2018-04-30T22:54:57.805Z,11.53
2018-04-30T22:57:26.602Z,11.46
2018-04-30T22:59:54.918Z,11.46
2018-04-30T23:02:23.165Z,11.37
2018-04-30T23:04:51.438Z,11.31
2018-04-30T23:07:19.722Z,11.13
2018-04-30T23:09:48.392Z,11.18
2018-04-30T23:12:16.699Z,11.24
2018-04-30T23:14:45.245Z,10.91
2018-04-30T23:17:14.548Z,11.03
2018-04-30T23:19:42.857Z,10.98
2018-04-30T23:22:14.831Z,10.80
2018-04-30T23:24:43.667Z,10.84
2018-04-30T23:27:11.984Z,10.91
2018-04-30T23:29:40.250Z,10.94
2018-04-30T23:32:08.556Z,10.77
2018-04-30T23:34:36.821Z,10.73
2018-04-30T23:37:05.998Z,10.68
2018-04-30T23:39:34.263Z,10.34
2018-04-30T23:42:02.584Z,10.21
2018-04-30T23:44:30.848Z,10.21
2018-04-30T23:46:59.204Z,10.30
2018-04-30T23:49:27.519Z,9.99
2018-04-30T23:51:55.845Z,10.16
2018-04-30T23:54:24.173Z,10.10
2018-04-30T23:56:52.503Z,10.16
2018-04-30T23:59:20.784Z,10.18
